首页
METAR-TAF:

METAR-TAF

机场 :

金奈国际机场

金奈, 印度

纬度: 13-00N, 经度: 080-11E, 海拔: 10米

当前天气观测

该预报发布于32分钟前的17:30 UTC
风速8节,风向西转西北
温度 30°C
湿度 70%
气压 1006 hPa
能見度: 6000
散云层高于1800英尺
少量云层高于2500英尺, 积雨云.
多云层高于9000英尺
小毛毛雨

METAR: VOMM 231730Z 29008KT 6000 -DZ SCT018 FEW025CB BKN090 30/24 Q1006 TEMPO 4000 -TSRA

时间: 23:32 (18:02 UTC)

预报

该预报发布于1小时和2分钟前的17:00 UTC
预报有效从23日的 18点(UTC)到 24日的 24点(UTC)
风速10节,风向
能見度: 6000
少量云层高于2000英尺
成为
从 24日的 03点(UTC)到 24日的 04点(UTC)
风速10节,风向西转西南,有时为20节阵风
成为
从 24日的 09点(UTC)到 24日的 10点(UTC)
风速10节,风向西转西南
成为
从 24日的 12点(UTC)到 24日的 13点(UTC)
风速10节,风向

TAF: VOMM 231700Z 2318/2424 18010KT 6000 FEW020 BECMG 2403/2404 25010G20KT BECMG 2409/2410 24010KT BECMG 2412/2413 18010KT

超过4000个机场的气象观测和天气预报(METAR&TAF报告)。

可查询的气象台以黄色和红色小点在地图上表示。

将鼠标移到小点上方,可查看气象台名称。

然后点击查看天气观测和预报。

如需切换地图:点击带黑十字的绿色按钮放大地图;点击带横线的绿色按钮缩小地图;或者点击绿色箭头查看邻近地区的地图。


METAR-TAF: